Time;durP1;ratioP1;P1;durP2;ratioP2;P2;SDS_P1;SDS_P2;PMS_P1;PMS_P2;Temp;Humidity;BMP_temperature;BMP_pressure;BME280_temperature;BME280_humidity;BME280_pressure;Samples;Min_cycle;Max_cycle;Signal;HPM_P1;HPM_P2
2022/10/16 00:00:41;;;;;;;2.22;1.00;;;17.90;99.90;;;;;;933704;151;27324;-82
2022/10/16 00:03:08;;;;;;;0.85;0.85;;;17.90;99.90;;;;;;936712;150;27366;-81
2022/10/16 00:05:34;;;;;;;1.00;1.00;;;17.90;99.90;;;;;;936086;149;27367;-80
2022/10/16 00:08:02;;;;;;;0.80;0.80;;;17.90;99.90;;;;;;934698;149;27361;-82
2022/10/16 00:10:28;;;;;;;0.88;0.88;;;17.90;99.90;;;;;;937392;149;27477;-81
2022/10/16 00:12:54;;;;;;;3.60;1.25;;;17.90;99.90;;;;;;935894;150;27388;-81
2022/10/16 00:15:21;;;;;;;1.85;1.00;;;17.90;99.90;;;;;;936052;148;27276;-80
2022/10/16 00:17:47;;;;;;;1.07;0.90;;;17.90;99.90;;;;;;934337;149;27427;-81
2022/10/16 00:20:14;;;;;;;2.10;1.02;;;17.90;99.90;;;;;;935200;151;27367;-81
2022/10/16 00:22:40;;;;;;;1.57;1.20;;;17.90;99.90;;;;;;936760;151;27355;-81
2022/10/16 00:25:07;;;;;;;1.02;0.93;;;17.90;99.90;;;;;;935986;151;27401;-81
2022/10/16 00:27:34;;;;;;;0.70;0.70;;;17.90;99.90;;;;;;934780;148;27437;-81
2022/10/16 00:30:00;;;;;;;2.65;1.02;;;17.90;99.90;;;;;;935065;151;27332;-81
2022/10/16 00:32:27;;;;;;;0.90;0.90;;;17.90;99.90;;;;;;935480;148;27342;-80
2022/10/16 00:34:54;;;;;;;0.93;0.90;;;17.90;99.90;;;;;;935453;149;27455;-81
2022/10/16 00:37:20;;;;;;;0.95;0.90;;;17.80;99.90;;;;;;935213;149;27311;-82
2022/10/16 00:39:47;;;;;;;0.95;0.95;;;17.80;99.90;;;;;;935120;151;27288;-81
2022/10/16 00:42:16;;;;;;;1.75;1.55;;;17.80;99.90;;;;;;936166;151;27324;-81
2022/10/16 00:44:49;;;;;;;5.58;1.00;;;17.80;99.90;;;;;;935378;148;27372;-80
2022/10/16 00:47:18;;;;;;;2.77;1.40;;;17.80;99.90;;;;;;935189;151;27361;-82
2022/10/16 00:49:44;;;;;;;1.10;1.07;;;17.80;99.90;;;;;;934937;151;27320;-81
2022/10/16 00:52:11;;;;;;;1.10;1.10;;;17.70;99.90;;;;;;935327;151;27342;-81
2022/10/16 00:54:37;;;;;;;2.08;1.00;;;17.70;99.90;;;;;;934498;151;27433;-81
2022/10/16 00:57:04;;;;;;;1.00;1.00;;;17.80;99.90;;;;;;936234;151;27370;-82
2022/10/16 00:59:34;;;;;;;2.72;1.07;;;17.80;99.90;;;;;;936448;149;28374;-81
2022/10/16 01:02:00;;;;;;;2.72;1.20;;;17.80;99.90;;;;;;936414;150;27264;-81
2022/10/16 01:04:27;;;;;;;1.30;1.20;;;17.80;99.90;;;;;;931759;148;27366;-80
2022/10/16 01:07:02;;;;;;;2.42;1.10;;;17.70;99.90;;;;;;930438;151;27278;-80
2022/10/16 01:09:38;;;;;;;1.40;1.12;;;17.80;99.90;;;;;;929943;152;27337;-81
2022/10/16 01:12:10;;;;;;;1.40;1.30;;;17.80;99.90;;;;;;930660;151;28260;-82
2022/10/16 01:14:58;;;;;;;2.08;1.20;;;17.80;99.90;;;;;;930529;149;27324;-80
2022/10/16 01:17:44;;;;;;;3.08;1.10;;;17.80;99.90;;;;;;926116;151;27312;-81
2022/10/16 01:20:10;;;;;;;1.07;0.98;;;17.80;99.90;;;;;;931516;151;27248;-82
2022/10/16 01:22:58;;;;;;;1.07;1.05;;;17.80;99.90;;;;;;931837;151;27294;-81
2022/10/16 01:25:30;;;;;;;0.78;0.78;;;17.80;99.90;;;;;;929452;151;27377;-81
2022/10/16 01:27:57;;;;;;;1.02;1.00;;;17.90;99.90;;;;;;929725;149;27439;-82
2022/10/16 01:30:24;;;;;;;0.90;0.90;;;17.90;99.90;;;;;;932220;149;27447;-82
2022/10/16 01:32:50;;;;;;;1.27;0.85;;;17.90;99.90;;;;;;929455;149;27316;-82
2022/10/16 01:35:23;;;;;;;1.72;0.98;;;17.90;99.90;;;;;;930634;150;27312;-82
2022/10/16 01:37:49;;;;;;;0.80;0.80;;;17.90;99.90;;;;;;932349;144;27356;-80
2022/10/16 01:40:15;;;;;;;0.90;0.90;;;18.00;99.90;;;;;;931615;149;27384;-81
2022/10/16 01:42:42;;;;;;;0.70;0.70;;;18.00;99.90;;;;;;933864;147;27289;-80
2022/10/16 01:45:11;;;;;;;1.55;0.98;;;18.00;99.90;;;;;;933614;144;27311;-80
2022/10/16 01:47:35;;;;;;;0.60;0.60;;;18.10;99.90;;;;;;931116;151;27341;-81
2022/10/16 01:50:02;;;;;;;0.80;0.80;;;18.10;99.90;;;;;;932141;152;27368;-80
2022/10/16 01:52:28;;;;;;;0.80;0.80;;;18.20;99.90;;;;;;933154;149;27346;-82
2022/10/16 01:54:55;;;;;;;0.70;0.70;;;18.20;99.90;;;;;;931216;152;27316;-82
2022/10/16 01:57:22;;;;;;;1.10;0.78;;;18.20;99.90;;;;;;931262;152;27301;-81
2022/10/16 01:59:48;;;;;;;0.72;0.72;;;18.20;99.90;;;;;;931609;151;27403;-81
2022/10/16 02:02:15;;;;;;;0.70;0.70;;;18.20;99.90;;;;;;931147;152;27323;-80
2022/10/16 02:04:44;;;;;;;2.30;0.55;;;18.30;99.90;;;;;;933304;148;27414;-82
2022/10/16 02:07:10;;;;;;;0.80;0.80;;;18.30;99.90;;;;;;936707;151;27356;-82
2022/10/16 02:09:37;;;;;;;0.50;0.50;;;18.30;99.90;;;;;;935378;151;27402;-81
2022/10/16 02:12:16;;;;;;;1.05;0.60;;;18.30;99.90;;;;;;934922;149;27378;-80
2022/10/16 02:14:42;;;;;;;1.00;0.47;;;18.30;99.90;;;;;;933398;151;27328;-82
2022/10/16 02:17:15;;;;;;;0.50;0.50;;;18.40;99.90;;;;;;935579;151;27325;-81
2022/10/16 02:19:41;;;;;;;0.60;0.60;;;18.30;99.90;;;;;;935444;151;27373;-81
2022/10/16 02:22:08;;;;;;;0.70;0.70;;;18.30;99.90;;;;;;936645;151;27326;-81
2022/10/16 02:24:34;;;;;;;1.10;0.70;;;18.40;99.90;;;;;;935978;151;27363;-82
2022/10/16 02:27:04;;;;;;;0.75;0.70;;;18.30;99.90;;;;;;935067;151;27369;-82
2022/10/16 02:29:30;;;;;;;1.37;0.80;;;18.30;99.90;;;;;;935124;151;27326;-81
2022/10/16 02:31:57;;;;;;;0.55;0.50;;;18.30;99.90;;;;;;936188;151;27336;-81
2022/10/16 02:34:24;;;;;;;0.30;0.30;;;18.30;99.90;;;;;;935168;151;27342;-82
2022/10/16 02:36:50;;;;;;;0.60;0.60;;;18.30;99.90;;;;;;935043;148;27359;-80
2022/10/16 02:39:17;;;;;;;1.07;0.88;;;18.30;99.90;;;;;;934849;151;27380;-79
2022/10/16 02:41:43;;;;;;;1.37;0.70;;;18.30;99.90;;;;;;932912;151;27281;-79
2022/10/16 02:44:10;;;;;;;0.72;0.70;;;18.30;99.90;;;;;;938489;151;27327;-79
2022/10/16 02:46:36;;;;;;;1.70;1.47;;;18.30;99.90;;;;;;935465;149;27297;-79
2022/10/16 02:49:03;;;;;;;0.70;0.70;;;18.30;99.90;;;;;;936180;151;27356;-79
2022/10/16 02:51:30;;;;;;;0.98;0.60;;;18.30;99.90;;;;;;934601;151;27346;-79
2022/10/16 02:53:59;;;;;;;0.65;0.65;;;18.20;99.90;;;;;;932704;151;27334;-79
2022/10/16 02:56:26;;;;;;;0.60;0.50;;;18.20;99.90;;;;;;935236;151;27347;-82
2022/10/16 02:58:52;;;;;;;0.57;0.50;;;18.30;99.90;;;;;;937010;149;27327;-82
2022/10/16 03:01:19;;;;;;;0.75;0.75;;;18.20;99.90;;;;;;936360;150;27307;-81
2022/10/16 03:03:45;;;;;;;0.75;0.70;;;18.20;99.90;;;;;;938199;148;27431;-82
2022/10/16 03:06:12;;;;;;;0.65;0.40;;;18.20;99.90;;;;;;935033;150;27392;-81
2022/10/16 03:08:39;;;;;;;0.65;0.65;;;18.20;99.90;;;;;;933985;151;27298;-82
2022/10/16 03:11:05;;;;;;;1.77;0.47;;;18.20;99.90;;;;;;936180;151;27329;-82
2022/10/16 03:13:32;;;;;;;0.70;0.70;;;18.20;99.90;;;;;;937637;151;27300;-80
2022/10/16 03:15:58;;;;;;;0.70;0.70;;;18.20;99.90;;;;;;936869;148;27380;-82
2022/10/16 03:18:25;;;;;;;0.70;0.57;;;18.20;99.90;;;;;;936089;151;27344;-82
2022/10/16 03:20:52;;;;;;;0.68;0.68;;;18.20;99.90;;;;;;934797;151;27311;-82
2022/10/16 03:23:18;;;;;;;0.30;0.30;;;18.20;99.90;;;;;;934847;151;27296;-81
2022/10/16 03:25:45;;;;;;;2.17;0.60;;;18.20;99.90;;;;;;937124;148;27304;-82
2022/10/16 03:28:11;;;;;;;0.60;0.60;;;18.20;99.90;;;;;;934811;151;27315;-80
2022/10/16 03:30:39;;;;;;;1.77;0.75;;;18.20;99.90;;;;;;934312;150;27383;-82
2022/10/16 03:33:05;;;;;;;0.45;0.45;;;18.20;99.90;;;;;;935292;151;27374;-82
2022/10/16 03:35:31;;;;;;;0.68;0.68;;;18.20;99.90;;;;;;935630;149;27366;-82
2022/10/16 03:37:58;;;;;;;1.02;0.60;;;18.20;99.90;;;;;;936015;148;27305;-81
2022/10/16 03:40:24;;;;;;;0.90;0.90;;;18.20;99.90;;;;;;935172;150;27308;-81
2022/10/16 03:42:51;;;;;;;0.98;0.95;;;18.10;99.90;;;;;;936684;149;27455;-82
2022/10/16 03:45:17;;;;;;;0.45;0.45;;;18.20;99.90;;;;;;936078;151;27362;-82
2022/10/16 03:47:44;;;;;;;0.85;0.65;;;18.20;99.90;;;;;;936576;151;27323;-82
2022/10/16 03:50:11;;;;;;;0.80;0.80;;;18.20;99.90;;;;;;934131;149;27363;-82
2022/10/16 03:52:37;;;;;;;1.30;0.82;;;18.20;99.90;;;;;;935371;151;27732;-81
2022/10/16 03:55:04;;;;;;;0.70;0.70;;;18.20;99.90;;;;;;935569;151;27398;-82
2022/10/16 03:57:30;;;;;;;1.22;1.00;;;18.20;99.90;;;;;;935597;151;27428;-82
2022/10/16 03:59:57;;;;;;;0.75;0.60;;;18.20;99.90;;;;;;934925;151;27328;-81
2022/10/16 04:02:24;;;;;;;1.87;0.93;;;18.20;99.90;;;;;;935997;149;27396;-81
2022/10/16 04:04:50;;;;;;;0.70;0.70;;;18.20;99.90;;;;;;934475;151;27340;-81
2022/10/16 04:07:17;;;;;;;1.15;1.05;;;18.20;99.90;;;;;;931659;152;27292;-80
2022/10/16 04:09:43;;;;;;;0.75;0.75;;;18.20;99.90;;;;;;931916;152;27450;-82
2022/10/16 04:12:10;;;;;;;0.70;0.70;;;18.20;99.90;;;;;;931196;152;27337;-82
2022/10/16 04:14:37;;;;;;;1.02;1.02;;;18.20;99.90;;;;;;931385;151;27482;-82
2022/10/16 04:17:03;;;;;;;0.65;0.65;;;18.20;99.90;;;;;;931409;151;27390;-81
2022/10/16 04:19:30;;;;;;;0.75;0.75;;;18.20;99.90;;;;;;930886;152;27352;-81
2022/10/16 04:21:56;;;;;;;1.17;1.10;;;18.20;99.90;;;;;;933702;152;27352;-80
2022/10/16 04:24:23;;;;;;;1.37;0.88;;;18.20;99.90;;;;;;930831;152;27374;-81
2022/10/16 04:26:49;;;;;;;1.87;0.98;;;18.20;99.90;;;;;;932423;149;27244;-82
2022/10/16 04:29:16;;;;;;;1.17;0.95;;;18.20;99.90;;;;;;930983;152;27416;-81
2022/10/16 04:31:43;;;;;;;1.02;1.02;;;18.20;99.90;;;;;;930366;152;27313;-81
2022/10/16 04:34:10;;;;;;;1.42;1.20;;;18.20;99.90;;;;;;931648;152;27808;-81
2022/10/16 04:36:37;;;;;;;1.67;1.00;;;18.20;99.90;;;;;;929526;149;27408;-81
2022/10/16 04:39:04;;;;;;;1.45;1.35;;;18.20;99.90;;;;;;931771;150;27320;-80
2022/10/16 04:41:30;;;;;;;1.75;0.95;;;18.20;99.90;;;;;;931154;150;27387;-82
2022/10/16 04:43:57;;;;;;;2.10;1.12;;;18.20;99.90;;;;;;930641;149;27449;-82
2022/10/16 04:46:23;;;;;;;1.20;1.10;;;18.20;99.90;;;;;;930765;152;27292;-82
2022/10/16 04:48:50;;;;;;;1.10;1.10;;;18.20;99.90;;;;;;931627;151;27240;-81
2022/10/16 04:51:18;;;;;;;1.22;1.20;;;18.20;99.90;;;;;;930147;150;27343;-80
2022/10/16 04:53:43;;;;;;;1.27;1.20;;;18.20;99.90;;;;;;930345;150;27367;-82
2022/10/16 04:56:10;;;;;;;1.00;1.00;;;18.30;99.90;;;;;;932467;152;27375;-81
2022/10/16 04:58:36;;;;;;;1.37;1.27;;;18.20;99.90;;;;;;929795;152;27289;-82
2022/10/16 05:01:03;;;;;;;1.37;1.30;;;18.30;99.90;;;;;;930653;151;27427;-82
2022/10/16 05:03:30;;;;;;;1.60;1.50;;;18.30;99.90;;;;;;932881;152;27328;-81
2022/10/16 05:05:56;;;;;;;2.15;1.12;;;18.30;99.90;;;;;;932478;150;27462;-80
2022/10/16 05:08:23;;;;;;;2.25;1.30;;;18.30;99.90;;;;;;936659;151;27467;-82
2022/10/16 05:10:49;;;;;;;5.80;1.72;;;18.30;99.90;;;;;;936207;151;27322;-82
2022/10/16 05:13:16;;;;;;;1.50;1.40;;;18.30;99.90;;;;;;936273;149;27361;-82
2022/10/16 05:15:42;;;;;;;1.45;1.35;;;18.30;99.90;;;;;;935959;151;27373;-82
2022/10/16 05:18:09;;;;;;;1.40;1.30;;;18.30;99.90;;;;;;935725;151;27382;-81
2022/10/16 05:20:36;;;;;;;1.70;1.60;;;18.30;99.90;;;;;;935134;151;27367;-82
2022/10/16 05:23:02;;;;;;;1.77;1.67;;;18.30;99.90;;;;;;936341;149;28385;-82
2022/10/16 05:25:29;;;;;;;1.52;1.40;;;18.30;99.90;;;;;;935745;150;27324;-82
2022/10/16 05:27:55;;;;;;;2.17;1.60;;;18.30;99.90;;;;;;936525;148;27276;-82
2022/10/16 05:30:22;;;;;;;1.42;1.42;;;18.30;99.90;;;;;;935461;151;27337;-82
2022/10/16 05:32:49;;;;;;;1.65;1.55;;;18.30;99.90;;;;;;934435;151;27399;-80
2022/10/16 05:35:15;;;;;;;1.72;1.60;;;18.30;99.90;;;;;;933511;148;27342;-82
2022/10/16 05:37:42;;;;;;;1.77;1.67;;;18.30;99.90;;;;;;937150;151;27340;-81
2022/10/16 05:40:08;;;;;;;2.40;1.52;;;18.30;99.90;;;;;;936219;148;27342;-82
2022/10/16 05:42:35;;;;;;;1.70;1.60;;;18.30;99.90;;;;;;935329;151;27871;-82
2022/10/16 05:45:02;;;;;;;1.80;1.70;;;18.30;99.90;;;;;;936224;148;27405;-81
2022/10/16 05:47:28;;;;;;;3.77;1.80;;;18.30;99.90;;;;;;935930;149;27488;-82
2022/10/16 05:49:55;;;;;;;2.47;1.77;;;18.30;99.90;;;;;;934420;151;27421;-82
2022/10/16 05:52:21;;;;;;;3.50;1.65;;;18.30;99.90;;;;;;934138;151;27264;-82
2022/10/16 05:54:48;;;;;;;1.98;1.85;;;18.40;99.90;;;;;;935697;151;27326;-81
2022/10/16 05:57:15;;;;;;;1.62;1.57;;;18.40;99.90;;;;;;936276;151;27311;-80
2022/10/16 05:59:41;;;;;;;2.00;1.80;;;18.40;99.90;;;;;;935993;151;27363;-81
2022/10/16 06:02:08;;;;;;;2.42;1.72;;;18.40;99.90;;;;;;934809;149;27355;-82
2022/10/16 06:04:34;;;;;;;1.67;1.57;;;18.40;99.90;;;;;;934541;151;27423;-82
2022/10/16 06:07:01;;;;;;;1.87;1.72;;;18.40;99.90;;;;;;935495;151;27402;-82
2022/10/16 06:09:27;;;;;;;1.72;1.62;;;18.40;99.90;;;;;;936068;150;27783;-81
2022/10/16 06:11:54;;;;;;;1.70;1.60;;;18.40;99.90;;;;;;935410;148;27361;-80
2022/10/16 06:14:21;;;;;;;2.62;1.60;;;18.40;99.90;;;;;;936926;151;27367;-82
2022/10/16 06:16:47;;;;;;;1.40;1.30;;;18.40;99.90;;;;;;935444;151;27433;-82
2022/10/16 06:19:16;;;;;;;2.02;1.30;;;18.40;99.90;;;;;;935302;151;27311;-82
2022/10/16 06:21:40;;;;;;;1.35;1.32;;;18.40;99.90;;;;;;935663;149;27642;-81
2022/10/16 06:24:07;;;;;;;1.47;1.37;;;18.40;99.90;;;;;;934052;151;27388;-82
2022/10/16 06:26:34;;;;;;;2.25;1.72;;;18.40;99.90;;;;;;934578;151;27450;-82
2022/10/16 06:29:00;;;;;;;1.45;1.32;;;18.40;99.90;;;;;;934805;151;27292;-82
2022/10/16 06:31:28;;;;;;;1.45;1.37;;;18.40;99.90;;;;;;935518;151;27383;-82
2022/10/16 06:33:53;;;;;;;1.85;1.05;;;18.40;99.90;;;;;;935182;151;27300;-82
2022/10/16 06:36:20;;;;;;;2.20;1.52;;;18.40;99.90;;;;;;935103;148;27318;-81
2022/10/16 06:38:47;;;;;;;1.62;1.32;;;18.40;99.90;;;;;;934687;151;27363;-82
2022/10/16 06:41:13;;;;;;;1.30;1.20;;;18.40;99.90;;;;;;935926;151;27346;-82
2022/10/16 06:43:40;;;;;;;1.30;1.20;;;18.50;99.90;;;;;;935563;151;27392;-83
2022/10/16 06:46:07;;;;;;;1.20;1.20;;;18.50;99.90;;;;;;936957;148;27319;-82
2022/10/16 06:48:33;;;;;;;1.15;1.05;;;18.50;99.90;;;;;;934914;149;27323;-82
2022/10/16 06:50:59;;;;;;;1.50;1.40;;;18.50;99.90;;;;;;935330;148;27863;-81
2022/10/16 06:53:26;;;;;;;1.42;1.37;;;18.60;99.90;;;;;;935828;151;27370;-83
2022/10/16 06:55:53;;;;;;;1.45;1.35;;;18.60;99.90;;;;;;936191;148;27263;-83
2022/10/16 06:58:19;;;;;;;1.55;1.45;;;18.60;99.90;;;;;;936283;149;27283;-82
2022/10/16 07:00:46;;;;;;;2.47;1.57;;;18.70;99.90;;;;;;933887;151;27444;-82
2022/10/16 07:03:12;;;;;;;1.47;1.42;;;18.70;99.90;;;;;;934631;149;27409;-81
2022/10/16 07:05:39;;;;;;;1.60;1.50;;;18.70;99.90;;;;;;936629;149;27514;-82
2022/10/16 07:08:06;;;;;;;1.67;1.57;;;18.70;99.90;;;;;;936287;150;27402;-82
2022/10/16 07:10:32;;;;;;;1.47;1.37;;;18.80;99.90;;;;;;935574;151;27277;-82
2022/10/16 07:12:59;;;;;;;2.58;1.50;;;18.80;99.90;;;;;;936141;151;27324;-82
2022/10/16 07:15:25;;;;;;;2.83;1.62;;;18.90;99.90;;;;;;935129;150;27310;-81
2022/10/16 07:17:52;;;;;;;1.60;1.50;;;18.90;99.90;;;;;;934149;151;27374;-82
2022/10/16 07:20:19;;;;;;;1.70;1.60;;;19.00;99.90;;;;;;935605;151;27342;-82
2022/10/16 07:22:45;;;;;;;2.17;1.80;;;19.00;99.90;;;;;;935640;149;27436;-82
2022/10/16 07:25:12;;;;;;;1.92;1.42;;;19.10;99.90;;;;;;933815;151;27426;-82
2022/10/16 07:27:38;;;;;;;1.45;1.35;;;19.20;99.90;;;;;;935710;151;27243;-82
2022/10/16 07:30:05;;;;;;;8.30;1.92;;;19.20;99.90;;;;;;935815;151;27385;-81
2022/10/16 07:32:32;;;;;;;1.60;1.50;;;19.30;99.90;;;;;;935539;149;27440;-82
2022/10/16 07:34:58;;;;;;;2.95;1.30;;;19.40;99.90;;;;;;933932;149;27387;-82
2022/10/16 07:37:25;;;;;;;9.38;1.85;;;19.40;99.90;;;;;;936732;150;27415;-82
2022/10/16 07:39:51;;;;;;;1.65;1.50;;;19.50;99.90;;;;;;935007;148;27475;-82
2022/10/16 07:42:19;;;;;;;1.60;1.50;;;19.50;99.90;;;;;;932796;151;27388;-82
2022/10/16 07:44:45;;;;;;;1.65;1.30;;;19.60;99.90;;;;;;936272;151;27826;-81
2022/10/16 07:47:11;;;;;;;1.60;1.50;;;19.60;99.90;;;;;;935133;151;27410;-82
2022/10/16 07:49:38;;;;;;;1.60;1.50;;;19.70;99.90;;;;;;936852;148;27372;-83
2022/10/16 07:52:05;;;;;;;2.47;1.82;;;19.70;99.90;;;;;;936281;151;27282;-82
2022/10/16 07:54:32;;;;;;;2.10;1.60;;;19.70;99.90;;;;;;934534;151;27358;-83
2022/10/16 07:56:59;;;;;;;3.22;1.75;;;19.70;99.90;;;;;;934724;151;27257;-82
2022/10/16 07:59:25;;;;;;;1.70;1.60;;;19.70;99.90;;;;;;935234;148;27312;-81
2022/10/16 08:01:52;;;;;;;1.90;1.70;;;19.70;99.90;;;;;;935618;150;27382;-81
2022/10/16 08:04:18;;;;;;;1.80;1.70;;;19.70;99.90;;;;;;936254;149;27479;-83
2022/10/16 08:06:45;;;;;;;2.90;2.60;;;19.70;99.90;;;;;;935505;150;27248;-82
2022/10/16 08:09:11;;;;;;;4.72;2.35;;;19.70;99.90;;;;;;936536;151;27734;-82
2022/10/16 08:11:38;;;;;;;2.05;1.95;;;19.70;99.90;;;;;;936707;151;27322;-82
2022/10/16 08:14:05;;;;;;;2.40;2.17;;;19.70;99.90;;;;;;936183;151;27306;-80
2022/10/16 08:16:31;;;;;;;2.08;1.80;;;19.70;99.90;;;;;;937505;148;27346;-83
2022/10/16 08:18:58;;;;;;;1.40;1.30;;;19.70;99.90;;;;;;938570;149;28398;-82
2022/10/16 08:21:24;;;;;;;1.52;1.42;;;19.70;99.90;;;;;;934112;151;27392;-82
2022/10/16 08:23:51;;;;;;;1.70;1.57;;;19.70;99.90;;;;;;936289;148;27338;-82
2022/10/16 08:26:18;;;;;;;1.90;1.60;;;19.80;99.90;;;;;;939404;144;27328;-81
2022/10/16 08:28:44;;;;;;;2.45;1.17;;;19.80;99.90;;;;;;937638;146;27328;-81
2022/10/16 08:31:11;;;;;;;2.30;1.70;;;19.80;99.90;;;;;;938119;143;27375;-81
2022/10/16 08:33:37;;;;;;;6.62;2.95;;;19.90;99.90;;;;;;937810;146;27283;-83
2022/10/16 08:36:04;;;;;;;1.75;1.65;;;19.90;99.90;;;;;;934310;151;27308;-82
2022/10/16 08:38:31;;;;;;;2.33;1.77;;;20.00;99.90;;;;;;936721;149;27299;-82
2022/10/16 08:41:00;;;;;;;1.70;1.20;;;20.00;99.90;;;;;;937652;150;27353;-81
2022/10/16 08:43:45;;;;;;;2.87;1.42;;;20.00;99.90;;;;;;924791;151;27805;-83
2022/10/16 08:46:42;;;;;;;1.52;1.20;;;20.10;99.90;;;;;;935856;151;27397;-83
2022/10/16 08:49:08;;;;;;;1.40;1.30;;;20.10;99.90;;;;;;934119;151;27307;-83
2022/10/16 08:51:35;;;;;;;1.87;1.35;;;20.10;99.90;;;;;;936010;148;27363;-82
2022/10/16 08:54:13;;;;;;;1.10;1.10;;;20.20;99.90;;;;;;935832;151;27408;-82
2022/10/16 08:56:40;;;;;;;1.65;1.10;;;20.20;99.90;;;;;;926919;151;27467;-83
2022/10/16 08:59:06;;;;;;;1.87;1.47;;;20.20;99.90;;;;;;935662;151;27312;-82
2022/10/16 09:01:41;;;;;;;1.60;1.50;;;20.20;99.90;;;;;;933346;149;27415;-82
2022/10/16 09:04:26;;;;;;;4.25;1.37;;;20.30;99.90;;;;;;933723;149;27366;-82
2022/10/16 09:06:53;;;;;;;2.20;1.32;;;20.30;99.90;;;;;;935114;151;27709;-80
2022/10/16 09:09:31;;;;;;;1.47;1.32;;;20.30;99.90;;;;;;931988;150;27499;-80
2022/10/16 09:12:16;;;;;;;1.62;1.52;;;20.30;99.90;;;;;;930344;152;27372;-83
2022/10/16 09:15:00;;;;;;;1.80;1.70;;;20.30;99.90;;;;;;929503;152;27402;-82
2022/10/16 09:17:31;;;;;;;2.90;1.85;;;20.40;99.90;;;;;;931887;150;27307;-81
2022/10/16 09:20:09;;;;;;;2.70;1.60;;;20.40;99.90;;;;;;931500;152;27343;-80
2022/10/16 09:22:35;;;;;;;1.40;1.40;;;20.50;99.90;;;;;;929320;152;27378;-81
2022/10/16 09:25:02;;;;;;;1.65;1.30;;;20.50;99.90;;;;;;932566;150;27385;-82
2022/10/16 09:27:28;;;;;;;1.75;1.37;;;20.60;99.90;;;;;;928267;152;27359;-82
2022/10/16 09:29:55;;;;;;;1.50;1.40;;;20.60;99.90;;;;;;932830;152;27293;-82
2022/10/16 09:32:22;;;;;;;1.65;1.35;;;20.70;99.90;;;;;;930419;152;27408;-81
2022/10/16 09:34:51;;;;;;;1.47;1.17;;;20.80;99.90;;;;;;929504;152;27372;-80
2022/10/16 09:37:18;;;;;;;1.50;1.40;;;20.90;99.90;;;;;;931862;149;27364;-82
2022/10/16 09:39:44;;;;;;;2.58;1.50;;;21.00;99.90;;;;;;933034;152;27332;-82
2022/10/16 09:42:11;;;;;;;1.57;1.30;;;21.00;99.90;;;;;;929503;150;27352;-82
2022/10/16 09:44:37;;;;;;;3.27;1.98;;;21.10;99.90;;;;;;928969;152;27260;-81
2022/10/16 09:47:04;;;;;;;1.30;1.20;;;21.20;99.90;;;;;;930498;150;27439;-81
2022/10/16 09:49:31;;;;;;;1.92;1.30;;;21.30;99.90;;;;;;931989;152;27502;-82
2022/10/16 09:52:12;;;;;;;2.17;1.30;;;21.30;99.90;;;;;;930968;152;27330;-82
2022/10/16 09:54:39;;;;;;;1.07;1.07;;;21.50;99.90;;;;;;930967;151;27458;-83
2022/10/16 09:57:05;;;;;;;3.65;1.52;;;21.60;99.90;;;;;;928747;151;27299;-83
2022/10/16 09:59:32;;;;;;;1.40;1.30;;;21.70;99.90;;;;;;931735;152;27452;-83
2022/10/16 10:02:00;;;;;;;2.65;1.32;;;21.90;99.90;;;;;;930979;152;27363;-83
2022/10/16 10:04:28;;;;;;;4.05;1.37;;;22.00;99.90;;;;;;931664;152;27313;-83
2022/10/16 10:06:55;;;;;;;1.05;0.95;;;22.20;99.90;;;;;;931781;149;27282;-82
2022/10/16 10:09:27;;;;;;;1.15;1.00;;;22.40;99.90;;;;;;935330;151;27352;-83
2022/10/16 10:11:59;;;;;;;1.00;1.00;;;22.60;99.90;;;;;;934240;151;27372;-83
2022/10/16 10:14:26;;;;;;;1.42;1.30;;;22.70;99.90;;;;;;934315;151;27996;-83
2022/10/16 10:16:53;;;;;;;1.32;1.22;;;22.80;99.90;;;;;;934624;151;27334;-83
2022/10/16 10:19:19;;;;;;;2.30;1.25;;;23.00;99.90;;;;;;934250;151;27297;-83
2022/10/16 10:21:46;;;;;;;1.57;1.20;;;23.10;99.90;;;;;;936510;151;27421;-82
2022/10/16 10:24:12;;;;;;;1.62;1.45;;;23.30;99.90;;;;;;936912;149;27335;-82
2022/10/16 10:26:39;;;;;;;1.10;1.10;;;23.40;99.90;;;;;;936274;151;27354;-82
2022/10/16 10:29:11;;;;;;;1.35;0.88;;;23.60;99.90;;;;;;935889;151;27295;-82
2022/10/16 10:31:59;;;;;;;1.37;1.00;;;23.80;99.90;;;;;;937304;148;27315;-83
2022/10/16 10:34:29;;;;;;;2.45;1.00;;;23.90;99.90;;;;;;935577;149;27331;-83
2022/10/16 10:37:16;;;;;;;1.30;0.85;;;24.10;99.90;;;;;;937230;148;27717;-83
2022/10/16 10:40:00;;;;;;;0.80;0.80;;;24.20;99.90;;;;;;935263;149;27413;-82
2022/10/16 10:42:51;;;;;;;1.22;0.90;;;24.30;99.90;;;;;;935180;151;27335;-83
2022/10/16 10:45:27;;;;;;;1.47;0.75;;;24.40;99.90;;;;;;920016;149;27336;-82
2022/10/16 10:48:05;;;;;;;0.80;0.80;;;24.50;99.90;;;;;;926050;148;27412;-83
2022/10/16 10:50:43;;;;;;;1.40;0.70;;;24.60;99.90;;;;;;933231;149;27317;-82
2022/10/16 10:53:22;;;;;;;1.55;0.40;;;24.60;99.90;;;;;;927324;151;27329;-83
2022/10/16 10:56:04;;;;;;;0.55;0.55;;;24.80;99.90;;;;;;933964;149;27396;-82
2022/10/16 10:58:39;;;;;;;0.50;0.50;;;24.90;99.90;;;;;;935852;151;27366;-81
2022/10/16 11:01:15;;;;;;;0.72;0.72;;;25.10;99.90;;;;;;934258;148;27355;-83
2022/10/16 11:04:18;;;;;;;1.10;1.05;;;25.20;99.90;;;;;;901862;157;27499;-83
2022/10/16 11:06:45;;;;;;;1.20;1.10;;;25.40;99.90;;;;;;935134;151;27476;-83
2022/10/16 11:09:15;;;;;;;0.93;0.90;;;25.50;99.90;;;;;;935403;149;27932;-83
2022/10/16 11:11:59;;;;;;;1.00;0.85;;;25.60;99.90;;;;;;934021;148;27344;-83
2022/10/16 11:14:31;;;;;;;1.45;0.93;;;25.60;99.90;;;;;;934468;148;27359;-82
2022/10/16 11:17:16;;;;;;;0.82;0.82;;;25.60;99.90;;;;;;934861;151;27356;-84
2022/10/16 11:19:48;;;;;;;1.82;0.88;;;25.70;99.90;;;;;;940050;148;27269;-82
2022/10/16 11:22:17;;;;;;;1.00;0.90;;;25.70;99.80;;;;;;934642;150;27295;-82
2022/10/16 11:24:50;;;;;;;1.67;0.80;;;25.70;99.20;;;;;;903873;151;27364;-82
2022/10/16 11:27:16;;;;;;;1.65;0.90;;;25.70;98.70;;;;;;935318;148;28031;-82
2022/10/16 11:29:46;;;;;;;2.15;0.72;;;25.70;98.30;;;;;;937663;148;27406;-83
2022/10/16 11:32:12;;;;;;;0.70;0.70;;;25.60;98.10;;;;;;932947;149;27372;-83
2022/10/16 11:34:39;;;;;;;2.92;0.85;;;25.60;98.30;;;;;;935152;149;27770;-83
2022/10/16 11:37:18;;;;;;;1.52;0.98;;;25.60;98.40;;;;;;934243;149;27465;-84
2022/10/16 11:39:44;;;;;;;1.10;0.70;;;25.60;98.20;;;;;;934812;151;27454;-83
2022/10/16 11:42:22;;;;;;;0.70;0.70;;;25.60;98.40;;;;;;936024;150;27306;-83
2022/10/16 11:45:07;;;;;;;1.32;0.70;;;25.60;97.80;;;;;;936447;151;27418;-82
2022/10/16 11:47:45;;;;;;;0.68;0.68;;;25.60;97.40;;;;;;934680;149;27454;-82
2022/10/16 11:50:24;;;;;;;1.42;1.32;;;25.60;97.40;;;;;;935836;149;27438;-83
2022/10/16 11:52:56;;;;;;;0.70;0.70;;;25.60;96.80;;;;;;935360;149;27277;-83
2022/10/16 11:55:38;;;;;;;0.65;0.65;;;25.60;96.50;;;;;;937727;151;27427;-83
2022/10/16 11:58:19;;;;;;;1.60;0.80;;;25.50;96.30;;;;;;929009;148;27331;-82
2022/10/16 12:01:04;;;;;;;0.70;0.70;;;25.50;96.40;;;;;;933956;149;27441;-83
2022/10/16 12:03:33;;;;;;;0.90;0.80;;;25.50;96.20;;;;;;934279;151;27730;-83
2022/10/16 12:06:05;;;;;;;1.22;0.60;;;25.40;96.40;;;;;;935200;151;27326;-82
2022/10/16 12:08:32;;;;;;;0.72;0.72;;;25.40;96.50;;;;;;934787;148;27441;-83
2022/10/16 12:10:58;;;;;;;0.60;0.60;;;25.40;96.10;;;;;;932597;150;27470;-83
2022/10/16 12:13:37;;;;;;;0.70;0.70;;;25.40;95.70;;;;;;927689;152;27481;-83
2022/10/16 12:16:13;;;;;;;2.20;0.60;;;25.40;95.70;;;;;;931464;151;27414;-82
2022/10/16 12:18:39;;;;;;;1.07;0.80;;;25.40;95.40;;;;;;932382;149;27266;-83
2022/10/16 12:21:07;;;;;;;0.80;0.80;;;25.30;95.40;;;;;;931644;149;27292;-82
2022/10/16 12:23:32;;;;;;;0.70;0.70;;;25.30;95.70;;;;;;928927;151;27352;-82
2022/10/16 12:25:59;;;;;;;0.65;0.57;;;25.30;95.40;;;;;;932277;149;27339;-82
2022/10/16 12:28:35;;;;;;;0.68;0.68;;;25.20;95.70;;;;;;931065;150;27280;-82
2022/10/16 12:31:01;;;;;;;0.72;0.72;;;25.30;95.70;;;;;;930038;149;27464;-83
2022/10/16 12:33:27;;;;;;;1.02;0.88;;;25.20;95.70;;;;;;932340;151;27341;-82
2022/10/16 12:35:54;;;;;;;1.02;0.90;;;25.20;95.30;;;;;;929129;149;27420;-81
2022/10/16 12:38:39;;;;;;;0.70;0.70;;;25.20;94.50;;;;;;931783;152;27422;-83
2022/10/16 12:41:08;;;;;;;0.98;0.98;;;25.20;94.40;;;;;;930538;152;27490;-83
2022/10/16 12:43:32;;;;;;;0.78;0.75;;;25.10;94.40;;;;;;930391;150;27659;-83
2022/10/16 12:46:05;;;;;;;1.50;0.55;;;25.10;94.60;;;;;;931395;152;27296;-83
2022/10/16 12:48:31;;;;;;;0.80;0.80;;;25.10;94.60;;;;;;930403;152;27943;-83
2022/10/16 12:50:58;;;;;;;0.60;0.60;;;25.10;95.10;;;;;;931138;149;27304;-83
2022/10/16 12:53:25;;;;;;;1.00;0.88;;;25.20;95.30;;;;;;928788;152;27371;-84
2022/10/16 12:56:13;;;;;;;0.90;0.90;;;25.20;94.90;;;;;;930443;150;27316;-83